Center Berlin, New York
Current Conditions -  °F | °C
As of 8:52 PM on Saturday 25 Oct 2014 (Local Time) from KAQW Reporting Station
Overcast Overcast  
Wind Chill: 50°   Ceiling: 8500
Heat Index: 50°   Visibility: 10mi
Dew Point: 47°   Wind: 0mph
Humidity: 89%   Direction: NA
Pressure: 29.55"   Gusts: NA
Location:  42.692°N, 73.3686°W
Report Text: KAQW 260052Z AUTO 00000KT 10SM SCT060 OVC085 10/08 A2955 RMK AO2 RAB24E52 SLP009 P0001 T01000083
Loading
Personal Weather Stations






























Interactive Weather Map
Tropical Storm Tracking
New forecast layout! Learn more

10-Day Weather Forecast

Advertisements
Track Severe Weather on mobile